createdAt,value
2023-02-12T00:01:24.203Z,65.38
2023-02-12T00:03:51.499Z,56.90
2023-02-12T00:06:18.532Z,63.92
2023-02-12T00:08:48.546Z,63.88
2023-02-12T00:11:19.486Z,63.38
2023-02-12T00:13:46.561Z,66.97
2023-02-12T00:16:17.409Z,63.85
2023-02-12T00:18:44.681Z,74.85
2023-02-12T00:21:13.828Z,65.78
2023-02-12T00:23:41.540Z,64.97
2023-02-12T00:26:15.199Z,64.53
2023-02-12T00:28:43.238Z,63.92
2023-02-12T00:31:14.681Z,63.05
2023-02-12T00:33:42.258Z,65.43
2023-02-12T00:36:13.239Z,66.43
2023-02-12T00:38:40.099Z,69.78
2023-02-12T00:41:06.845Z,64.35
2023-02-12T00:43:33.889Z,71.88
2023-02-12T00:46:01.146Z,69.10
2023-02-12T00:48:27.947Z,64.53
2023-02-12T00:50:54.720Z,62.30
2023-02-12T00:53:21.536Z,63.42
2023-02-12T00:55:49.095Z,63.38
2023-02-12T00:58:18.865Z,72.03
2023-02-12T01:00:46.134Z,68.45
2023-02-12T01:03:15.284Z,69.53
2023-02-12T01:05:42.123Z,64.40
2023-02-12T01:08:11.951Z,69.72
2023-02-12T01:10:39.961Z,71.63
2023-02-12T01:13:07.944Z,70.55
2023-02-12T01:15:34.753Z,71.22
2023-02-12T01:18:01.657Z,69.57
2023-02-12T01:20:28.468Z,64.82
2023-02-12T01:22:55.229Z,67.95
2023-02-12T01:25:21.996Z,62.10
2023-02-12T01:27:48.922Z,72.68
2023-02-12T01:30:16.496Z,69.50
2023-02-12T01:32:44.318Z,68.90
2023-02-12T01:35:11.182Z,63.15
2023-02-12T01:37:38.623Z,66.57
2023-02-12T01:40:07.842Z,63.97
2023-02-12T01:42:34.895Z,65.80
2023-02-12T01:45:36.700Z,66.20
2023-02-12T01:48:03.662Z,68.03
2023-02-12T01:50:30.606Z,68.28
2023-02-12T01:52:58.854Z,64.50
2023-02-12T01:55:25.808Z,62.60
2023-02-12T01:57:52.595Z,65.93
2023-02-12T02:00:23.655Z,59.50
2023-02-12T02:02:58.673Z,72.35
2023-02-12T02:05:53.138Z,61.38
2023-02-12T02:08:20.075Z,66.45
2023-02-12T02:10:46.849Z,67.18
2023-02-12T02:13:32.730Z,70.53
2023-02-12T02:16:11.067Z,67.72
2023-02-12T02:18:49.487Z,68.65
2023-02-12T02:22:07.986Z,66.72
2023-02-12T02:25:10.613Z,65.10
2023-02-12T02:28:21.255Z,66.72
2023-02-12T02:31:32.279Z,66.10
2023-02-12T02:34:09.444Z,65.70
2023-02-12T02:37:09.053Z,68.18
2023-02-12T02:40:02.371Z,71.03
2023-02-12T02:42:48.837Z,72.05
2023-02-12T02:45:26.497Z,69.50
2023-02-12T02:48:13.870Z,73.80
2023-02-12T02:50:46.923Z,68.90
2023-02-12T02:55:51.260Z,71.38
2023-02-12T02:58:25.590Z,67.55
2023-02-12T03:01:07.953Z,76.10
2023-02-12T03:04:02.687Z,74.47
2023-02-12T03:06:54.442Z,72.93
2023-02-12T03:09:36.767Z,76.03
2023-02-12T03:12:20.780Z,71.00
2023-02-12T03:15:10.887Z,69.75
2023-02-12T03:17:49.544Z,71.95
2023-02-12T03:20:26.644Z,70.10
2023-02-12T03:23:02.090Z,66.43
2023-02-12T03:26:01.265Z,72.63
2023-02-12T03:28:35.846Z,70.60
2023-02-12T03:31:45.846Z,71.93
2023-02-12T03:34:21.527Z,68.07
2023-02-12T03:37:12.877Z,76.88
2023-02-12T03:39:57.186Z,69.55
2023-02-12T03:42:54.795Z,66.13
2023-02-12T03:45:58.966Z,69.25
2023-02-12T03:48:49.575Z,76.75
2023-02-12T03:51:35.244Z,74.28
2023-02-12T03:54:03.559Z,76.32
2023-02-12T03:56:43.526Z,71.78
2023-02-12T03:59:10.881Z,70.82
2023-02-12T04:01:37.952Z,77.00
2023-02-12T04:04:08.109Z,74.05
2023-02-12T04:06:35.472Z,76.20
2023-02-12T04:09:09.974Z,79.40
2023-02-12T04:12:05.114Z,76.68
2023-02-12T04:15:15.544Z,86.30
2023-02-12T04:18:14.981Z,81.55
2023-02-12T04:21:06.406Z,77.50
2023-02-12T04:24:11.005Z,83.78
2023-02-12T04:27:00.121Z,78.07
2023-02-12T04:29:50.865Z,76.80
2023-02-12T04:32:53.049Z,80.82
2023-02-12T04:35:56.342Z,81.45
2023-02-12T04:38:35.193Z,77.22
2023-02-12T04:41:04.588Z,74.47
2023-02-12T04:43:38.279Z,74.30
2023-02-12T04:46:08.478Z,72.07
2023-02-12T04:48:53.792Z,75.80
2023-02-12T04:51:22.532Z,70.53
2023-02-12T04:53:49.770Z,77.88
2023-02-12T04:56:17.766Z,77.03
2023-02-12T04:58:44.659Z,77.32
2023-02-12T05:01:11.624Z,73.25
2023-02-12T05:03:38.565Z,78.03
2023-02-12T05:06:07.504Z,77.07
2023-02-12T05:08:34.383Z,81.85
2023-02-12T05:11:09.998Z,75.78
2023-02-12T05:13:38.233Z,78.95
2023-02-12T05:16:08.673Z,80.57
2023-02-12T05:18:36.689Z,81.40
2023-02-12T05:21:06.004Z,84.53
2023-02-12T05:23:36.038Z,75.93
2023-02-12T05:26:08.836Z,71.65
2023-02-12T05:28:35.714Z,82.03
2023-02-12T05:31:06.443Z,80.28
2023-02-12T05:33:33.410Z,83.95
2023-02-12T05:36:10.180Z,86.95
2023-02-12T05:38:37.324Z,86.28
2023-02-12T05:41:06.341Z,82.57
2023-02-12T05:43:33.327Z,82.35
2023-02-12T05:46:01.935Z,88.70
2023-02-12T05:48:30.418Z,91.97
2023-02-12T05:51:09.694Z,92.40
2023-02-12T05:53:38.347Z,86.32
2023-02-12T05:56:21.404Z,87.85
2023-02-12T05:58:54.682Z,88.78
2023-02-12T06:01:29.838Z,94.32
2023-02-12T06:03:58.850Z,91.85
2023-02-12T06:06:27.415Z,87.30
2023-02-12T06:08:56.421Z,98.55
2023-02-12T06:11:23.467Z,91.07
2023-02-12T06:13:51.208Z,93.05
2023-02-12T06:16:27.707Z,95.57
2023-02-12T06:18:56.909Z,95.72
2023-02-12T06:21:26.141Z,95.25
2023-02-12T06:23:53.555Z,98.28
2023-02-12T06:26:22.465Z,94.40
2023-02-12T06:28:51.092Z,96.65
2023-02-12T06:31:31.831Z,104.00
2023-02-12T06:34:02.867Z,98.35
2023-02-12T06:36:30.173Z,111.00
2023-02-12T06:38:56.978Z,111.88
2023-02-12T06:41:24.103Z,111.13
2023-02-12T06:43:51.023Z,101.90
2023-02-12T06:46:18.100Z,106.60
2023-02-12T06:48:44.919Z,95.60
2023-02-12T06:51:18.729Z,103.60
2023-02-12T06:53:45.969Z,115.47
2023-02-12T06:56:14.085Z,102.07
2023-02-12T06:58:45.367Z,116.38
2023-02-12T07:01:18.717Z,112.45
2023-02-12T07:04:02.872Z,112.63
2023-02-12T07:06:31.915Z,116.85
2023-02-12T07:08:58.840Z,112.88
2023-02-12T07:11:35.473Z,117.78
2023-02-12T07:14:03.995Z,115.40
2023-02-12T07:16:30.813Z,109.10
2023-02-12T07:18:57.650Z,126.07
2023-02-12T07:21:24.423Z,117.65
2023-02-12T07:23:52.987Z,111.70
2023-02-12T07:26:21.359Z,115.10
2023-02-12T07:28:49.731Z,121.47
2023-02-12T07:31:20.616Z,117.07
2023-02-12T07:33:48.838Z,125.90
2023-02-12T07:36:20.297Z,123.85
2023-02-12T07:38:47.986Z,127.40
2023-02-12T07:41:30.963Z,124.53
2023-02-12T07:44:06.732Z,130.15
2023-02-12T07:46:47.826Z,125.93
2023-02-12T07:49:22.587Z,122.28
2023-02-12T07:51:50.568Z,113.63
2023-02-12T07:54:17.680Z,120.30
2023-02-12T07:56:47.299Z,118.25
2023-02-12T07:59:17.976Z,127.75
2023-02-12T08:01:51.260Z,147.02
2023-02-12T08:04:21.708Z,128.48
2023-02-12T08:06:51.509Z,115.60
2023-02-12T08:09:26.581Z,121.25
2023-02-12T08:11:55.466Z,122.45
2023-02-12T08:14:23.005Z,123.10
2023-02-12T08:16:50.940Z,119.80
2023-02-12T08:19:24.040Z,115.90
2023-02-12T08:21:54.375Z,129.48
2023-02-12T08:24:24.998Z,120.80
2023-02-12T08:26:52.692Z,116.50
2023-02-12T08:29:24.374Z,112.68
2023-02-12T08:31:57.949Z,123.38
2023-02-12T08:34:28.720Z,115.22
2023-02-12T08:36:59.012Z,110.70
2023-02-12T08:39:28.976Z,114.35
2023-02-12T08:41:57.837Z,104.03
2023-02-12T08:44:27.382Z,100.03
2023-02-12T08:46:56.307Z,107.45
2023-02-12T08:49:28.406Z,100.80
2023-02-12T08:51:57.491Z,103.35
2023-02-12T08:54:28.966Z,101.20
2023-02-12T08:56:58.428Z,98.65
2023-02-12T08:59:25.564Z,94.57
2023-02-12T09:01:55.795Z,121.28
2023-02-12T09:04:26.384Z,90.85
2023-02-12T09:06:54.691Z,98.13
2023-02-12T09:09:24.624Z,97.82
2023-02-12T09:11:51.516Z,96.13
2023-02-12T09:14:24.846Z,84.60
2023-02-12T09:16:53.412Z,88.43
2023-02-12T09:19:21.811Z,96.30
2023-02-12T09:21:57.229Z,94.65
2023-02-12T09:24:28.226Z,84.70
2023-02-12T09:26:56.549Z,84.47
2023-02-12T09:29:23.706Z,83.22
2023-02-12T09:31:50.584Z,92.55
2023-02-12T09:34:17.541Z,84.75
2023-02-12T09:36:44.329Z,84.75
2023-02-12T09:39:11.302Z,85.47
2023-02-12T09:42:13.921Z,81.38
2023-02-12T09:44:50.762Z,76.65
2023-02-12T09:47:47.045Z,78.95
2023-02-12T09:50:49.227Z,76.47
2023-02-12T09:53:28.207Z,71.28
2023-02-12T09:55:56.567Z,65.55
2023-02-12T09:58:47.027Z,69.10
2023-02-12T10:01:18.846Z,68.28
2023-02-12T10:03:51.516Z,68.53
2023-02-12T10:06:25.766Z,64.80
2023-02-12T10:09:18.555Z,61.28
2023-02-12T10:11:49.612Z,63.83
2023-02-12T10:14:46.502Z,64.22
2023-02-12T10:18:06.886Z,64.45
2023-02-12T10:21:12.107Z,67.68
2023-02-12T10:23:48.437Z,60.95
2023-02-12T10:26:26.142Z,63.92
2023-02-12T10:28:55.076Z,59.50
2023-02-12T10:31:37.807Z,56.47
2023-02-12T10:34:22.174Z,64.63
2023-02-12T10:36:54.815Z,62.35
2023-02-12T10:39:36.743Z,65.55
2023-02-12T10:42:23.551Z,64.70
2023-02-12T10:44:51.918Z,58.83
2023-02-12T10:47:22.243Z,66.13
2023-02-12T10:50:13.381Z,54.33
2023-02-12T10:52:50.106Z,53.35
2023-02-12T10:55:29.285Z,60.58
2023-02-12T10:58:00.170Z,54.20
2023-02-12T11:00:37.055Z,55.28
2023-02-12T11:03:14.952Z,54.50
2023-02-12T11:05:44.655Z,47.17
2023-02-12T11:08:40.292Z,53.40
2023-02-12T11:11:30.603Z,55.63
2023-02-12T11:14:17.430Z,47.95
2023-02-12T11:16:56.593Z,54.63
2023-02-12T11:19:30.958Z,49.45
2023-02-12T11:22:19.341Z,54.13
2023-02-12T11:24:48.298Z,48.72
2023-02-12T11:27:28.932Z,46.72
2023-02-12T11:30:19.940Z,49.85
2023-02-12T11:32:50.012Z,42.00
2023-02-12T11:35:35.912Z,52.60
2023-02-12T11:38:04.087Z,49.30
2023-02-12T11:40:34.403Z,48.38
2023-02-12T11:43:07.605Z,49.40
2023-02-12T11:45:45.134Z,46.20
2023-02-12T11:48:23.448Z,47.15
2023-02-12T11:50:55.343Z,51.05
2023-02-12T11:53:52.326Z,53.67
2023-02-12T11:56:21.190Z,47.83
2023-02-12T11:58:51.167Z,54.28
2023-02-12T12:01:31.081Z,58.85
2023-02-12T12:04:18.110Z,55.33
2023-02-12T12:06:51.627Z,54.38
2023-02-12T12:09:56.640Z,48.58
2023-02-12T12:12:43.724Z,49.33
2023-02-12T12:15:43.544Z,54.55
2023-02-12T12:18:56.340Z,54.17
2023-02-12T12:21:43.996Z,50.72
2023-02-12T12:24:40.004Z,49.13
2023-02-12T12:27:57.224Z,45.63
2023-02-12T12:30:43.963Z,46.40
2023-02-12T12:33:36.054Z,49.38
2023-02-12T12:36:14.501Z,48.40
2023-02-12T12:39:18.830Z,47.55
2023-02-12T12:41:53.761Z,47.72
2023-02-12T12:44:47.927Z,49.50
2023-02-12T12:47:59.684Z,45.92
2023-02-12T12:51:22.495Z,42.08
2023-02-12T12:53:59.388Z,55.53
2023-02-12T12:56:38.307Z,51.80
2023-02-12T12:59:48.617Z,47.58
2023-02-12T13:02:45.712Z,45.60
2023-02-12T13:05:51.569Z,53.42
2023-02-12T13:08:46.816Z,52.85
2023-02-12T13:11:29.953Z,48.28
2023-02-12T13:14:37.692Z,50.78
2023-02-12T13:17:15.569Z,52.38
2023-02-12T13:20:04.650Z,48.45
2023-02-12T13:23:33.713Z,48.05
2023-02-12T13:26:24.278Z,49.35
2023-02-12T13:29:02.462Z,52.33
2023-02-12T13:31:38.853Z,49.67
2023-02-12T13:34:13.983Z,47.85
2023-02-12T13:36:43.031Z,51.33
2023-02-12T13:39:12.542Z,47.85
2023-02-12T13:41:45.856Z,46.10
2023-02-12T13:44:46.704Z,51.65
2023-02-12T13:47:40.776Z,48.50
2023-02-12T13:51:04.608Z,48.03
2023-02-12T13:53:54.899Z,59.83
2023-02-12T13:56:46.164Z,51.67
2023-02-12T13:59:32.336Z,52.88
2023-02-12T14:02:01.216Z,54.55
2023-02-12T14:04:38.931Z,46.25
2023-02-12T14:07:12.964Z,45.88
2023-02-12T14:09:46.172Z,46.65
2023-02-12T14:12:25.927Z,44.30
2023-02-12T14:15:08.798Z,46.60
2023-02-12T14:17:36.733Z,51.80
2023-02-12T14:20:34.612Z,53.90
2023-02-12T14:23:27.653Z,49.15
2023-02-12T14:26:24.555Z,45.70
2023-02-12T14:29:06.488Z,52.58
2023-02-12T14:31:38.890Z,49.83
2023-02-12T14:34:06.172Z,51.00
2023-02-12T14:36:33.277Z,43.40
2023-02-12T14:39:08.579Z,43.75
2023-02-12T14:41:41.765Z,44.03
2023-02-12T14:44:18.033Z,43.10
2023-02-12T14:46:58.808Z,47.17
2023-02-12T14:49:33.683Z,45.70
2023-02-12T14:52:06.604Z,46.58
2023-02-12T14:54:45.538Z,44.60
2023-02-12T14:57:36.084Z,49.05
2023-02-12T15:00:19.642Z,50.13
2023-02-12T15:02:56.233Z,49.08
2023-02-12T15:05:47.520Z,47.05
2023-02-12T15:08:31.773Z,46.80
2023-02-12T15:11:45.994Z,52.30
2023-02-12T15:14:24.872Z,47.65
2023-02-12T15:17:02.722Z,51.00
2023-02-12T15:20:06.639Z,47.17
2023-02-12T15:22:43.097Z,49.30
2023-02-12T15:25:32.911Z,54.03
2023-02-12T15:28:07.460Z,49.15
2023-02-12T15:30:38.272Z,49.20
2023-02-12T15:33:07.417Z,49.95
2023-02-12T15:35:38.425Z,62.45
2023-02-12T15:38:08.860Z,52.65
2023-02-12T15:40:36.052Z,59.65
2023-02-12T15:43:06.955Z,56.90
2023-02-12T15:45:36.343Z,51.80
2023-02-12T15:48:18.512Z,51.75
2023-02-12T15:51:22.725Z,57.10
2023-02-12T15:53:50.084Z,51.20
2023-02-12T15:56:22.486Z,47.00
2023-02-12T15:58:57.219Z,53.35
2023-02-12T16:01:34.337Z,44.08
2023-02-12T16:04:08.902Z,51.13
2023-02-12T16:06:37.197Z,69.05
2023-02-12T16:09:16.436Z,46.65
2023-02-12T16:11:45.933Z,49.78
2023-02-12T16:14:40.770Z,47.20
2023-02-12T16:17:38.147Z,44.45
2023-02-12T16:20:27.112Z,45.05
2023-02-12T16:22:55.324Z,44.45
2023-02-12T16:25:33.414Z,38.35
2023-02-12T16:28:17.810Z,39.28
2023-02-12T16:30:48.206Z,37.03
2023-02-12T16:33:48.540Z,33.40
2023-02-12T16:36:25.225Z,36.97
2023-02-12T16:39:02.547Z,46.10
2023-02-12T16:41:32.346Z,42.65
2023-02-12T16:44:06.267Z,41.67
2023-02-12T16:46:45.119Z,30.35
2023-02-12T16:49:18.163Z,36.22
2023-02-12T16:54:35.116Z,41.78
2023-02-12T16:57:02.140Z,39.72
2023-02-12T16:59:29.574Z,24.52
2023-02-12T17:02:14.515Z,31.67
2023-02-12T17:04:41.757Z,28.30
2023-02-12T17:07:28.137Z,24.80
2023-02-12T17:09:55.034Z,60.58
2023-02-12T17:12:21.847Z,42.10
2023-02-12T17:14:48.926Z,34.33
2023-02-12T17:17:16.478Z,27.73
2023-02-12T17:19:43.290Z,25.58
2023-02-12T17:22:23.993Z,20.58
2023-02-12T17:24:53.063Z,20.63
2023-02-12T17:27:20.369Z,15.90
2023-02-12T17:29:47.407Z,17.40
2023-02-12T17:32:14.459Z,22.88
2023-02-12T17:34:48.621Z,23.02
2023-02-12T17:37:17.998Z,26.02
2023-02-12T17:39:44.954Z,38.08
2023-02-12T17:42:12.138Z,50.45
2023-02-12T17:44:40.063Z,59.42
2023-02-12T17:47:07.144Z,45.30
2023-02-12T17:49:35.441Z,40.92
2023-02-12T17:52:04.150Z,37.00
2023-02-12T17:54:32.432Z,36.33
2023-02-12T17:56:59.220Z,37.38
2023-02-12T17:59:26.084Z,38.50
2023-02-12T18:01:52.908Z,42.90
2023-02-12T18:04:19.821Z,35.40
2023-02-12T18:06:46.635Z,34.83
2023-02-12T18:09:13.574Z,31.30
2023-02-12T18:11:42.142Z,33.60
2023-02-12T18:14:11.720Z,30.77
2023-02-12T18:16:38.676Z,32.38
2023-02-12T18:19:05.799Z,35.60
2023-02-12T18:21:34.885Z,38.45
2023-02-12T18:24:02.139Z,37.28
2023-02-12T18:26:29.494Z,32.72
2023-02-12T18:28:58.531Z,33.33
2023-02-12T18:31:26.777Z,33.40
2023-02-12T18:33:54.310Z,39.03
2023-02-12T18:36:22.490Z,37.78
2023-02-12T18:38:51.727Z,26.40
2023-02-12T18:41:27.507Z,36.33
2023-02-12T18:43:55.145Z,35.88
2023-02-12T18:46:26.602Z,37.47
2023-02-12T18:48:55.631Z,32.97
2023-02-12T18:51:26.976Z,32.13
2023-02-12T18:54:02.881Z,33.88
2023-02-12T18:56:33.760Z,32.10
2023-02-12T18:59:04.916Z,33.15
2023-02-12T19:01:34.563Z,35.85
2023-02-12T19:04:04.870Z,32.53
2023-02-12T19:06:34.441Z,38.35
2023-02-12T19:09:04.832Z,35.25
2023-02-12T19:11:32.341Z,35.15
2023-02-12T19:14:01.182Z,34.40
2023-02-12T19:16:30.084Z,46.72
2023-02-12T19:19:00.867Z,41.05
2023-02-12T19:21:27.663Z,54.08
2023-02-12T19:23:56.873Z,44.40
2023-02-12T19:26:25.377Z,43.95
2023-02-12T19:28:54.444Z,38.00
2023-02-12T19:31:30.458Z,42.80
2023-02-12T19:34:02.502Z,42.25
2023-02-12T19:36:33.448Z,33.00
2023-02-12T19:39:03.369Z,39.08
2023-02-12T19:41:31.280Z,45.67
2023-02-12T19:44:02.954Z,50.60
2023-02-12T19:46:31.415Z,46.33
2023-02-12T19:49:01.868Z,49.92
2023-02-12T19:51:30.361Z,43.65
2023-02-12T19:54:05.888Z,48.03
2023-02-12T19:56:35.376Z,43.25
2023-02-12T19:59:03.139Z,47.22
2023-02-12T20:01:31.699Z,43.35
2023-02-12T20:03:58.850Z,37.63
2023-02-12T20:06:37.103Z,36.75
2023-02-12T20:09:06.951Z,41.50
2023-02-12T20:11:38.451Z,41.90
2023-02-12T20:14:10.155Z,39.00
2023-02-12T20:16:39.224Z,34.00
2023-02-12T20:19:14.096Z,37.10
2023-02-12T20:21:42.769Z,33.85
2023-02-12T20:24:10.921Z,33.38
2023-02-12T20:26:38.834Z,39.50
2023-02-12T20:29:06.613Z,34.75
2023-02-12T20:31:36.369Z,40.90
2023-02-12T20:34:12.164Z,38.03
2023-02-12T20:36:43.511Z,34.00
2023-02-12T20:39:13.490Z,37.90
2023-02-12T20:41:41.218Z,35.10
2023-02-12T20:44:15.277Z,36.60
2023-02-12T20:46:52.479Z,39.05
2023-02-12T20:49:22.833Z,38.35
2023-02-12T20:51:50.676Z,36.03
2023-02-12T20:54:17.460Z,37.75
2023-02-12T20:56:44.859Z,34.47
2023-02-12T20:59:13.782Z,36.38
2023-02-12T21:01:43.140Z,34.10
2023-02-12T21:04:14.665Z,33.65
2023-02-12T21:06:42.073Z,36.80
2023-02-12T21:09:13.113Z,37.90
2023-02-12T21:11:42.709Z,33.25
2023-02-12T21:14:21.857Z,33.28
2023-02-12T21:16:51.824Z,32.92
2023-02-12T21:19:18.919Z,29.92
2023-02-12T21:21:48.978Z,32.22
2023-02-12T21:24:22.755Z,30.20
2023-02-12T21:26:52.122Z,31.02
2023-02-12T21:29:19.825Z,30.75
2023-02-12T21:31:50.836Z,36.40
2023-02-12T21:34:22.134Z,29.63
2023-02-12T21:36:50.924Z,31.25
2023-02-12T21:39:26.526Z,37.72
2023-02-12T21:42:00.915Z,37.78
2023-02-12T21:44:29.236Z,29.25
2023-02-12T21:46:57.240Z,31.27
2023-02-12T21:49:25.200Z,30.58
2023-02-12T21:52:04.683Z,31.13
2023-02-12T21:54:33.369Z,29.50
2023-02-12T21:57:02.892Z,29.38
2023-02-12T21:59:32.621Z,33.55
2023-02-12T22:02:02.649Z,36.42
2023-02-12T22:04:30.698Z,34.22
2023-02-12T22:07:03.466Z,37.45
2023-02-12T22:11:58.505Z,27.52
2023-02-12T22:14:25.533Z,32.10
2023-02-12T22:16:52.752Z,27.05
2023-02-12T22:19:21.870Z,25.58
2023-02-12T22:21:54.096Z,26.67
2023-02-12T22:24:22.182Z,27.70
2023-02-12T22:26:49.245Z,28.80
2023-02-12T22:29:17.881Z,29.73
2023-02-12T22:31:46.649Z,29.27
2023-02-12T22:34:17.849Z,25.67
2023-02-12T22:36:46.625Z,29.83
2023-02-12T22:39:14.644Z,29.88
2023-02-12T22:41:42.415Z,28.17
2023-02-12T22:44:12.443Z,31.58
2023-02-12T22:46:40.336Z,31.67
2023-02-12T22:49:07.112Z,32.35
2023-02-12T22:51:35.930Z,29.25
2023-02-12T22:54:03.787Z,27.63
2023-02-12T22:56:30.595Z,35.90
2023-02-12T22:59:01.771Z,31.33
2023-02-12T23:01:30.157Z,33.45
2023-02-12T23:03:57.385Z,31.25
2023-02-12T23:06:31.091Z,29.33
2023-02-12T23:09:04.428Z,31.98
2023-02-12T23:11:33.135Z,32.60
2023-02-12T23:14:00.489Z,28.75
2023-02-12T23:16:27.404Z,33.15
2023-02-12T23:18:59.266Z,29.33
2023-02-12T23:21:28.678Z,35.50
2023-02-12T23:23:56.132Z,34.70
2023-02-12T23:26:23.551Z,30.90
2023-02-12T23:28:50.681Z,29.77
2023-02-12T23:31:17.814Z,29.77
2023-02-12T23:33:44.720Z,25.35
2023-02-12T23:36:11.931Z,31.60
2023-02-12T23:38:38.808Z,32.88
2023-02-12T23:41:05.821Z,23.35
2023-02-12T23:43:35.204Z,30.80
2023-02-12T23:46:03.216Z,33.00
2023-02-12T23:48:30.437Z,32.13
2023-02-12T23:50:57.940Z,26.88
2023-02-12T23:53:25.014Z,35.83
2023-02-12T23:55:52.026Z,32.63
2023-02-12T23:58:19.070Z,38.65
